createdAt,value
2023-03-03T00:00:11.497Z,34.83
2023-03-03T00:02:49.666Z,40.45
2023-03-03T00:05:20.481Z,34.50
2023-03-03T00:08:05.100Z,44.92
2023-03-03T00:10:37.032Z,39.88
2023-03-03T00:13:26.958Z,33.35
2023-03-03T00:16:25.776Z,37.03
2023-03-03T00:18:55.683Z,36.58
2023-03-03T00:21:30.666Z,34.63
2023-03-03T00:24:07.042Z,35.70
2023-03-03T00:26:48.226Z,33.33
2023-03-03T00:29:40.078Z,31.52
2023-03-03T00:32:17.477Z,38.65
2023-03-03T00:34:56.781Z,36.80
2023-03-03T00:37:37.475Z,37.50
2023-03-03T00:40:20.348Z,33.28
2023-03-03T00:42:52.201Z,36.97
2023-03-03T00:45:39.025Z,37.78
2023-03-03T00:48:17.621Z,37.33
2023-03-03T00:50:55.547Z,40.28
2023-03-03T00:53:40.001Z,39.50
2023-03-03T00:56:24.047Z,42.08
2023-03-03T00:59:03.344Z,37.55
2023-03-03T01:01:37.258Z,31.90
2023-03-03T01:04:20.148Z,37.33
2023-03-03T01:06:59.147Z,36.47
2023-03-03T01:09:29.684Z,32.50
2023-03-03T01:12:14.646Z,33.13
2023-03-03T01:14:46.743Z,30.58
2023-03-03T01:17:15.410Z,31.65
2023-03-03T01:19:47.266Z,27.63
2023-03-03T01:22:16.520Z,33.25
2023-03-03T01:24:55.091Z,32.47
2023-03-03T01:27:26.274Z,29.60
2023-03-03T01:29:58.546Z,29.20
2023-03-03T01:32:27.667Z,27.35
2023-03-03T01:35:09.697Z,28.20
2023-03-03T01:37:51.452Z,26.42
2023-03-03T01:40:24.028Z,30.38
2023-03-03T01:42:54.298Z,27.13
2023-03-03T01:45:27.256Z,34.38
2023-03-03T01:51:09.650Z,30.10
2023-03-03T01:53:56.374Z,32.45
2023-03-03T01:56:29.439Z,31.92
2023-03-03T01:59:05.844Z,30.00
2023-03-03T02:01:35.505Z,31.95
2023-03-03T02:04:04.930Z,28.30
2023-03-03T02:06:36.674Z,30.23
2023-03-03T02:09:35.375Z,27.45
2023-03-03T02:12:09.470Z,29.98
2023-03-03T02:14:37.890Z,28.83
2023-03-03T02:17:06.622Z,25.67
2023-03-03T02:19:59.866Z,23.08
2023-03-03T02:22:48.437Z,25.67
2023-03-03T02:25:33.567Z,28.45
2023-03-03T02:28:02.105Z,26.38
2023-03-03T02:30:30.566Z,29.60
2023-03-03T02:32:59.839Z,28.83
2023-03-03T02:35:40.562Z,31.02
2023-03-03T02:38:37.463Z,27.15
2023-03-03T02:41:24.337Z,30.25
2023-03-03T02:44:19.242Z,26.42
2023-03-03T02:46:51.134Z,24.33
2023-03-03T02:49:27.390Z,36.35
2023-03-03T02:51:57.642Z,29.23
2023-03-03T02:54:32.316Z,29.23
2023-03-03T02:57:01.419Z,25.48
2023-03-03T02:59:30.834Z,31.73
2023-03-03T03:01:59.618Z,29.83
2023-03-03T03:04:31.029Z,30.10
2023-03-03T03:09:45.592Z,31.45
2023-03-03T03:12:20.669Z,28.95
2023-03-03T03:14:49.439Z,31.25
2023-03-03T03:17:18.790Z,33.65
2023-03-03T03:19:48.388Z,24.75
2023-03-03T03:22:18.208Z,30.98
2023-03-03T03:25:10.331Z,32.30
2023-03-03T03:27:38.866Z,28.73
2023-03-03T03:30:10.500Z,25.30
2023-03-03T03:32:39.022Z,34.38
2023-03-03T03:35:07.484Z,33.13
2023-03-03T03:37:36.093Z,29.50
2023-03-03T03:40:06.894Z,31.73
2023-03-03T03:42:41.975Z,39.95
2023-03-03T03:45:11.786Z,39.88
2023-03-03T03:47:47.585Z,33.75
2023-03-03T03:50:16.825Z,38.20
2023-03-03T03:52:45.551Z,37.53
2023-03-03T03:55:17.194Z,27.58
2023-03-03T03:57:45.374Z,34.15
2023-03-03T04:00:17.971Z,40.88
2023-03-03T04:02:54.232Z,40.03
2023-03-03T04:05:22.792Z,32.42
2023-03-03T04:07:59.195Z,31.92
2023-03-03T04:10:29.061Z,40.70
2023-03-03T04:12:59.311Z,49.17
2023-03-03T04:15:30.547Z,45.05
2023-03-03T04:18:00.843Z,59.80
2023-03-03T04:20:41.049Z,57.10
2023-03-03T04:23:18.434Z,51.58
2023-03-03T04:25:51.164Z,46.72
2023-03-03T04:28:20.635Z,46.63
2023-03-03T04:30:48.876Z,45.65
2023-03-03T04:33:18.221Z,43.47
2023-03-03T04:35:47.639Z,33.38
2023-03-03T04:38:18.552Z,33.25
2023-03-03T04:40:47.529Z,37.88
2023-03-03T04:43:18.716Z,34.80
2023-03-03T04:45:54.301Z,34.53
2023-03-03T04:48:27.302Z,37.65
2023-03-03T04:50:57.566Z,30.88
2023-03-03T04:53:35.981Z,36.53
2023-03-03T04:56:16.419Z,33.17
2023-03-03T04:58:50.840Z,37.20
2023-03-03T05:01:22.475Z,30.42
2023-03-03T05:03:51.246Z,29.98
2023-03-03T05:06:21.561Z,31.77
2023-03-03T05:08:54.364Z,29.20
2023-03-03T05:11:34.159Z,30.33
2023-03-03T05:14:16.357Z,34.40
2023-03-03T05:17:20.640Z,29.58
2023-03-03T05:20:19.587Z,31.13
2023-03-03T05:22:49.405Z,34.83
2023-03-03T05:25:21.934Z,30.70
2023-03-03T05:31:11.052Z,33.10
2023-03-03T05:37:19.889Z,31.30
2023-03-03T05:39:58.962Z,29.73
2023-03-03T05:42:41.584Z,37.03
2023-03-03T05:45:27.441Z,28.27
2023-03-03T05:48:03.159Z,47.70
2023-03-03T05:53:48.843Z,35.17
2023-03-03T05:56:18.757Z,31.85
2023-03-03T05:58:46.807Z,30.45
2023-03-03T06:01:15.049Z,39.33
2023-03-03T06:03:50.351Z,36.78
2023-03-03T06:06:20.755Z,32.92
2023-03-03T06:08:49.137Z,33.08
2023-03-03T06:11:33.614Z,33.45
2023-03-03T06:14:10.122Z,40.55
2023-03-03T06:16:38.534Z,41.47
2023-03-03T06:19:15.344Z,42.72
2023-03-03T06:22:09.538Z,41.15
2023-03-03T06:24:42.267Z,39.15
2023-03-03T06:27:29.517Z,31.23
2023-03-03T06:29:57.481Z,33.10
2023-03-03T06:32:25.888Z,36.50
2023-03-03T06:35:07.499Z,54.42
2023-03-03T06:37:35.603Z,54.05
2023-03-03T06:40:12.412Z,41.22
2023-03-03T06:42:40.668Z,45.15
2023-03-03T06:45:15.926Z,40.15
2023-03-03T06:47:54.351Z,37.05
2023-03-03T06:50:28.436Z,33.92
2023-03-03T06:53:18.845Z,40.47
2023-03-03T06:55:48.787Z,41.45
2023-03-03T06:58:24.381Z,33.38
2023-03-03T07:00:56.455Z,39.95
2023-03-03T07:03:34.643Z,42.47
2023-03-03T07:06:10.846Z,44.45
2023-03-03T07:08:41.117Z,50.50
2023-03-03T07:11:13.418Z,51.40
2023-03-03T07:13:48.614Z,58.97
2023-03-03T07:16:18.275Z,54.05
2023-03-03T07:18:56.480Z,57.58
2023-03-03T07:21:34.691Z,54.60
2023-03-03T07:24:22.817Z,52.45
2023-03-03T07:27:17.633Z,57.17
2023-03-03T07:29:51.247Z,71.43
2023-03-03T07:32:39.949Z,61.15
2023-03-03T07:35:26.332Z,70.32
2023-03-03T07:37:58.995Z,68.38
2023-03-03T07:40:42.746Z,73.70
2023-03-03T07:43:50.943Z,74.63
2023-03-03T07:46:46.041Z,85.97
2023-03-03T07:49:33.852Z,74.70
2023-03-03T07:52:09.950Z,65.43
2023-03-03T07:54:50.602Z,72.47
2023-03-03T07:57:41.934Z,75.20
2023-03-03T08:00:22.849Z,70.35
2023-03-03T08:02:57.665Z,74.72
2023-03-03T08:21:57.289Z,74.15
2023-03-03T08:27:44.588Z,72.80
2023-03-03T08:34:01.853Z,74.55
2023-03-03T08:39:40.966Z,66.00
2023-03-03T08:42:26.313Z,68.40
2023-03-03T08:45:24.601Z,63.05
2023-03-03T08:51:05.867Z,52.53
2023-03-03T08:57:05.471Z,61.67
2023-03-03T09:02:24.376Z,57.38
2023-03-03T09:05:01.369Z,65.07
2023-03-03T09:07:30.651Z,56.45
2023-03-03T09:10:00.014Z,65.20
2023-03-03T09:12:36.858Z,62.60
2023-03-03T09:15:32.695Z,56.03
2023-03-03T09:18:03.349Z,55.13
2023-03-03T09:21:00.150Z,58.77
2023-03-03T09:23:41.502Z,56.92
2023-03-03T09:26:31.323Z,60.67
2023-03-03T09:29:21.609Z,58.78
2023-03-03T09:31:57.297Z,63.08
2023-03-03T09:34:45.684Z,61.25
2023-03-03T09:37:21.223Z,53.13
2023-03-03T09:40:06.901Z,54.10
2023-03-03T09:42:54.410Z,55.67
2023-03-03T09:45:42.314Z,55.38
2023-03-03T09:48:26.526Z,55.63
2023-03-03T09:51:16.351Z,56.38
2023-03-03T09:53:54.401Z,55.97
2023-03-03T09:56:29.814Z,55.47
2023-03-03T09:59:22.824Z,48.00
2023-03-03T10:05:18.884Z,48.63
2023-03-03T10:08:21.148Z,47.67
2023-03-03T10:11:13.050Z,50.85
2023-03-03T10:13:58.486Z,45.80
2023-03-03T10:17:05.721Z,49.40
2023-03-03T10:19:58.576Z,48.15
2023-03-03T10:22:47.533Z,52.00
2023-03-03T10:25:31.283Z,50.83
2023-03-03T10:28:25.990Z,50.28
2023-03-03T10:31:05.562Z,50.75
2023-03-03T10:33:44.887Z,52.13
2023-03-03T10:36:32.474Z,51.88
2023-03-03T10:39:12.321Z,49.42
2023-03-03T10:41:51.478Z,43.88
2023-03-03T10:44:22.359Z,45.40
2023-03-03T10:47:03.879Z,48.40
2023-03-03T10:53:34.415Z,46.60
2023-03-03T10:59:05.561Z,49.35
2023-03-03T11:01:55.323Z,50.90
2023-03-03T11:05:14.222Z,47.95
2023-03-03T11:07:56.000Z,45.80
2023-03-03T11:10:45.636Z,51.45
2023-03-03T11:13:38.380Z,50.65
2023-03-03T11:16:50.069Z,50.30
2023-03-03T11:19:29.327Z,48.45
2023-03-03T11:22:26.405Z,53.53
2023-03-03T12:11:54.330Z,47.88
2023-03-03T12:14:26.966Z,44.17
2023-03-03T12:17:02.912Z,45.38
2023-03-03T12:23:24.184Z,39.88
2023-03-03T12:26:33.487Z,40.40
2023-03-03T12:29:38.125Z,37.00
2023-03-03T12:32:40.236Z,41.88
2023-03-03T12:42:29.693Z,42.50
2023-03-03T12:48:30.369Z,41.33
2023-03-03T12:54:01.861Z,36.45
2023-03-03T12:56:58.934Z,32.67
2023-03-03T12:59:46.655Z,30.85
2023-03-03T13:02:28.678Z,32.47
2023-03-03T13:05:17.422Z,41.10
2023-03-03T13:07:47.315Z,39.72
2023-03-03T13:10:19.616Z,33.83
2023-03-03T13:13:08.426Z,34.05
2023-03-03T13:15:55.890Z,36.53
2023-03-03T13:18:29.538Z,40.60
2023-03-03T13:21:03.550Z,37.00
2023-03-03T13:24:03.746Z,35.22
2023-03-03T13:26:49.391Z,31.70
2023-03-03T13:29:37.680Z,35.58
2023-03-03T13:32:10.738Z,25.23
2023-03-03T13:35:03.222Z,36.25
2023-03-03T13:37:45.624Z,32.25
2023-03-03T13:43:30.074Z,30.60
2023-03-03T13:46:19.972Z,31.77
2023-03-03T13:49:16.823Z,29.00
2023-03-03T13:51:53.878Z,37.83
2023-03-03T13:54:37.471Z,33.88
2023-03-03T13:57:13.834Z,30.35
2023-03-03T13:59:47.044Z,35.03
2023-03-03T14:02:17.034Z,34.22
2023-03-03T14:04:49.604Z,32.78
2023-03-03T14:07:21.468Z,29.48
2023-03-03T14:10:01.571Z,29.52
2023-03-03T14:12:50.204Z,29.65
2023-03-03T14:15:27.779Z,36.03
2023-03-03T14:18:18.694Z,34.60
2023-03-03T14:20:53.541Z,41.25
2023-03-03T14:23:46.211Z,35.08
2023-03-03T14:26:14.493Z,34.45
2023-03-03T14:29:14.556Z,38.95
2023-03-03T14:31:47.062Z,34.35
2023-03-03T14:34:41.596Z,37.75
2023-03-03T14:37:28.518Z,36.30
2023-03-03T14:40:25.965Z,33.65
2023-03-03T14:42:58.974Z,37.40
2023-03-03T14:45:48.814Z,35.17
2023-03-03T14:48:18.102Z,38.22
2023-03-03T14:50:49.164Z,38.80
2023-03-03T14:53:17.060Z,40.40
2023-03-03T14:55:48.443Z,36.33
2023-03-03T15:00:44.308Z,40.08
2023-03-03T15:03:14.951Z,41.40
2023-03-03T15:05:56.435Z,39.28
2023-03-03T15:08:35.655Z,42.92
2023-03-03T15:11:32.860Z,40.80
2023-03-03T15:14:17.454Z,43.35
2023-03-03T15:16:48.021Z,39.10
2023-03-03T15:19:34.647Z,41.30
2023-03-03T15:22:26.370Z,33.88
2023-03-03T15:27:41.117Z,36.92
2023-03-03T15:30:31.171Z,41.58
2023-03-03T15:33:17.974Z,41.55
2023-03-03T15:35:59.009Z,42.85
2023-03-03T15:38:46.912Z,41.80
2023-03-03T15:41:18.061Z,50.35
2023-03-03T15:44:12.118Z,40.88
2023-03-03T15:46:56.116Z,42.83
2023-03-03T15:49:47.743Z,46.10
2023-03-03T15:52:24.967Z,39.53
2023-03-03T15:55:11.682Z,43.78
2023-03-03T15:58:04.571Z,47.80
2023-03-03T16:00:51.098Z,46.10
2023-03-03T16:03:22.299Z,38.88
2023-03-03T16:06:04.530Z,46.75
2023-03-03T16:08:57.402Z,41.80
2023-03-03T16:11:45.981Z,41.00
2023-03-03T16:14:16.588Z,42.92
2023-03-03T16:16:50.002Z,45.53
2023-03-03T16:19:46.581Z,38.88
2023-03-03T16:25:37.882Z,40.60
2023-03-03T16:28:17.551Z,47.92
2023-03-03T16:31:07.226Z,45.95
2023-03-03T16:33:54.561Z,41.65
2023-03-03T16:36:41.862Z,48.78
2023-03-03T16:39:31.242Z,47.75
2023-03-03T16:42:22.660Z,40.63
2023-03-03T16:45:09.927Z,41.88
2023-03-03T16:48:13.702Z,48.50
2023-03-03T16:50:41.527Z,54.95
2023-03-03T16:53:37.835Z,48.03
2023-03-03T16:56:13.263Z,45.65
2023-03-03T16:59:05.839Z,60.22
2023-03-03T17:01:40.067Z,58.70
2023-03-03T17:04:18.634Z,48.22
2023-03-03T17:07:11.494Z,52.65
2023-03-03T17:10:06.761Z,54.95
2023-03-03T17:12:57.784Z,54.45
2023-03-03T17:16:04.772Z,56.08
2023-03-03T17:18:42.769Z,62.40
2023-03-03T17:21:22.896Z,58.60
2023-03-03T17:24:08.154Z,61.35
2023-03-03T17:26:39.452Z,56.22
2023-03-03T17:29:10.311Z,61.65
2023-03-03T17:32:13.761Z,62.22
2023-03-03T17:35:03.813Z,74.05
2023-03-03T17:38:10.889Z,65.97
2023-03-03T17:40:44.674Z,56.88
2023-03-03T17:43:31.364Z,66.25
2023-03-03T17:46:02.220Z,63.17
2023-03-03T17:48:52.004Z,72.82
2023-03-03T17:51:38.700Z,74.30
2023-03-03T17:54:44.208Z,72.72
2023-03-03T17:57:32.763Z,79.43
2023-03-03T18:00:22.391Z,78.45
2023-03-03T18:03:17.349Z,80.35
2023-03-03T18:06:04.719Z,86.20
2023-03-03T18:11:50.818Z,74.78
2023-03-03T18:14:19.850Z,75.10
2023-03-03T18:23:37.607Z,78.40
2023-03-03T18:26:09.271Z,73.70
2023-03-03T18:28:47.664Z,75.05
2023-03-03T18:31:54.601Z,74.90
2023-03-03T18:34:42.089Z,80.38
2023-03-03T18:37:36.100Z,72.10
2023-03-03T18:40:23.665Z,71.97
2023-03-03T18:42:55.146Z,76.38
2023-03-03T18:48:16.887Z,80.50
2023-03-03T18:50:46.801Z,84.88
2023-03-03T18:53:20.973Z,84.50
2023-03-03T18:56:05.052Z,80.78
2023-03-03T18:59:07.069Z,96.15
2023-03-03T19:01:53.732Z,83.57
2023-03-03T19:04:27.989Z,80.07
2023-03-03T19:07:42.234Z,86.88
2023-03-03T19:10:23.366Z,90.90
2023-03-03T19:13:13.086Z,79.53
2023-03-03T19:16:04.850Z,80.95
2023-03-03T19:18:58.136Z,85.78
2023-03-03T19:21:43.986Z,78.13
2023-03-03T19:24:17.929Z,80.63
2023-03-03T19:27:17.061Z,74.13
2023-03-03T19:30:00.855Z,85.65
2023-03-03T19:33:04.717Z,78.22
2023-03-03T19:36:08.778Z,78.78
2023-03-03T19:38:56.088Z,91.80
2023-03-03T19:41:30.154Z,91.05
2023-03-03T19:44:23.665Z,88.07
2023-03-03T19:47:21.104Z,85.60
2023-03-03T19:50:12.996Z,76.10
2023-03-03T19:52:51.169Z,72.20
2023-03-03T19:55:36.605Z,77.05
2023-03-03T19:58:06.564Z,75.53
2023-03-03T20:00:54.136Z,78.50
2023-03-03T20:03:44.101Z,75.70
2023-03-03T20:06:31.400Z,73.10
2023-03-03T20:09:07.568Z,76.93
2023-03-03T20:12:02.551Z,73.25
2023-03-03T20:14:30.583Z,85.25
2023-03-03T20:17:06.484Z,72.88
2023-03-03T20:19:59.383Z,75.75
2023-03-03T20:22:50.304Z,77.10
2023-03-03T20:25:27.067Z,75.78
2023-03-03T20:28:17.458Z,76.38
2023-03-03T20:31:06.998Z,72.93
2023-03-03T20:33:58.840Z,73.20
2023-03-03T20:36:49.841Z,68.80
2023-03-03T20:39:44.571Z,68.70
2023-03-03T20:42:33.071Z,72.88
2023-03-03T20:45:39.211Z,78.43
2023-03-03T20:48:21.184Z,71.47
2023-03-03T20:51:02.097Z,76.15
2023-03-03T20:53:41.444Z,75.32
2023-03-03T20:56:31.262Z,67.13
2023-03-03T20:59:09.480Z,73.05
2023-03-03T21:02:01.857Z,67.75
2023-03-03T21:04:33.006Z,73.80
2023-03-03T21:07:02.507Z,62.05
2023-03-03T21:09:41.165Z,73.72
2023-03-03T21:12:27.351Z,63.92
2023-03-03T21:15:34.356Z,69.78
2023-03-03T21:18:28.876Z,71.30
2023-03-03T21:24:14.474Z,65.38
2023-03-03T21:27:15.527Z,62.08
2023-03-03T21:30:02.760Z,58.72
2023-03-03T21:32:51.859Z,64.97
2023-03-03T21:35:23.919Z,67.85
2023-03-03T21:37:57.853Z,60.17
2023-03-03T21:40:36.361Z,66.65
2023-03-03T21:43:11.278Z,74.18
2023-03-03T21:45:45.802Z,62.25
2023-03-03T21:48:14.265Z,62.17
2023-03-03T21:50:44.243Z,70.07
2023-03-03T21:53:21.151Z,65.05
2023-03-03T21:56:01.109Z,70.57
2023-03-03T21:58:44.611Z,61.60
2023-03-03T22:01:13.433Z,71.13
2023-03-03T22:03:53.867Z,62.65
2023-03-03T22:06:30.118Z,64.80
2023-03-03T22:08:58.112Z,56.53
2023-03-03T22:11:25.990Z,62.08
2023-03-03T22:13:59.125Z,62.67
2023-03-03T22:16:46.632Z,57.08
2023-03-03T22:19:35.969Z,63.25
2023-03-03T22:22:20.416Z,65.00
2023-03-03T22:24:49.502Z,58.47
2023-03-03T22:27:26.029Z,60.00
2023-03-03T22:30:25.052Z,69.95
2023-03-03T22:33:04.035Z,61.63
2023-03-03T22:35:58.565Z,64.05
2023-03-03T22:38:34.190Z,62.92
2023-03-03T22:41:07.271Z,62.42
2023-03-03T22:43:39.355Z,58.03
2023-03-03T22:46:15.788Z,72.35
2023-03-03T22:49:05.640Z,64.75
2023-03-03T22:51:48.865Z,67.45
2023-03-03T22:54:22.808Z,66.85
2023-03-03T22:56:59.838Z,62.47
2023-03-03T22:59:35.201Z,60.42
2023-03-03T23:02:28.253Z,62.28
2023-03-03T23:05:02.385Z,64.57
2023-03-03T23:07:30.664Z,65.78
2023-03-03T23:10:02.492Z,61.88
2023-03-03T23:12:33.417Z,62.83
2023-03-03T23:15:14.473Z,63.33
2023-03-03T23:17:46.119Z,65.32
2023-03-03T23:20:26.882Z,64.15
2023-03-03T23:22:56.305Z,63.42
2023-03-03T23:25:37.955Z,66.47
2023-03-03T23:30:43.172Z,65.60
2023-03-03T23:33:23.523Z,59.00
2023-03-03T23:36:17.371Z,63.00
2023-03-03T23:38:54.677Z,63.83
2023-03-03T23:41:22.731Z,64.80
2023-03-03T23:43:52.551Z,66.97
2023-03-03T23:46:45.247Z,58.42
2023-03-03T23:49:13.297Z,58.78
2023-03-03T23:52:19.782Z,59.10
2023-03-03T23:55:06.402Z,61.13
2023-03-03T23:57:49.463Z,63.55
